createdAt,value
2018-12-31T00:02:04.194Z,6.84
2018-12-31T00:04:33.625Z,7.24
2018-12-31T00:07:02.742Z,7.76
2018-12-31T00:09:31.865Z,7.63
2018-12-31T00:12:06.403Z,7.59
2018-12-31T00:14:37.091Z,7.85
2018-12-31T00:17:06.259Z,7.89
2018-12-31T00:19:35.551Z,7.61
2018-12-31T00:22:04.880Z,7.33
2018-12-31T00:24:34.010Z,7.00
2018-12-31T00:27:03.146Z,6.79
2018-12-31T00:29:36.160Z,5.07
2018-12-31T00:32:11.355Z,7.09
2018-12-31T00:34:43.000Z,6.98
2018-12-31T00:37:18.156Z,7.12
2018-12-31T00:39:44.568Z,6.67
2018-12-31T00:42:13.869Z,6.74
2018-12-31T00:44:47.464Z,7.01
2018-12-31T00:47:20.207Z,7.15
2018-12-31T00:49:51.200Z,6.95
2018-12-31T00:52:20.395Z,6.53
2018-12-31T00:54:50.247Z,-2.86
2018-12-31T00:57:23.901Z,6.94
2018-12-31T00:59:53.029Z,6.88
2018-12-31T01:02:25.956Z,7.24
2018-12-31T01:04:56.410Z,6.88
2018-12-31T01:07:30.785Z,7.12
2018-12-31T01:10:00.202Z,7.12
2018-12-31T01:12:29.335Z,6.63
2018-12-31T01:15:00.167Z,6.62
2018-12-31T01:17:29.276Z,6.90
2018-12-31T01:19:59.748Z,7.49
2018-12-31T01:22:31.988Z,7.48
2018-12-31T01:25:04.107Z,7.75
2018-12-31T01:27:34.103Z,7.32
2018-12-31T01:30:07.046Z,7.15
2018-12-31T01:32:36.233Z,7.31
2018-12-31T01:35:05.710Z,7.14
2018-12-31T01:37:36.309Z,6.72
2018-12-31T01:40:06.149Z,6.46
2018-12-31T01:42:35.302Z,6.52
2018-12-31T01:45:05.024Z,7.00
2018-12-31T01:47:37.891Z,7.13
2018-12-31T01:50:07.288Z,7.61
2018-12-31T01:52:43.713Z,8.00
2018-12-31T01:55:17.231Z,8.36
2018-12-31T01:57:47.716Z,8.30
2018-12-31T02:00:22.111Z,8.06
2018-12-31T02:02:52.548Z,7.40
2018-12-31T02:05:24.486Z,6.97
2018-12-31T02:07:54.707Z,7.12
2018-12-31T02:10:24.906Z,7.11
2018-12-31T02:12:54.054Z,6.90
2018-12-31T02:15:42.458Z,6.84
2018-12-31T02:18:11.723Z,6.63
2018-12-31T02:20:42.446Z,6.78
2018-12-31T02:23:11.597Z,7.13
2018-12-31T02:25:42.412Z,7.29
2018-12-31T02:28:14.998Z,7.05
2018-12-31T02:30:44.290Z,7.56
2018-12-31T02:33:20.192Z,6.88
2018-12-31T02:35:53.497Z,6.83
2018-12-31T02:38:25.504Z,6.88
2018-12-31T02:40:54.730Z,6.68
2018-12-31T02:43:32.157Z,6.95
2018-12-31T02:46:02.985Z,6.79
2018-12-31T02:48:32.176Z,6.93
2018-12-31T02:51:01.287Z,6.84
2018-12-31T02:53:30.403Z,6.81
2018-12-31T02:55:59.535Z,7.43
2018-12-31T02:58:30.317Z,7.63
2018-12-31T03:01:00.996Z,7.62
2018-12-31T03:03:33.934Z,6.87
2018-12-31T03:06:07.374Z,6.97
2018-12-31T03:08:36.615Z,7.23
2018-12-31T03:11:05.748Z,7.84
2018-12-31T03:13:34.865Z,7.84
2018-12-31T03:16:04.023Z,7.33
2018-12-31T03:18:33.127Z,7.69
2018-12-31T03:21:02.267Z,7.26
2018-12-31T03:23:35.875Z,7.18
2018-12-31T03:26:05.093Z,6.90
2018-12-31T03:28:34.300Z,7.18
2018-12-31T03:31:03.420Z,7.42
2018-12-31T03:33:32.544Z,7.84
2018-12-31T03:36:02.759Z,7.99
2018-12-31T03:38:31.895Z,7.78
2018-12-31T03:41:01.535Z,8.00
2018-12-31T03:43:30.777Z,7.98
2018-12-31T03:46:04.088Z,8.13
2018-12-31T03:48:42.401Z,7.94
2018-12-31T03:51:22.171Z,8.03
2018-12-31T03:53:53.829Z,7.88
2018-12-31T03:56:23.244Z,8.14
2018-12-31T03:58:52.380Z,7.71
2018-12-31T04:01:23.694Z,7.88
2018-12-31T04:03:53.055Z,7.92
2018-12-31T04:06:22.602Z,7.97
2018-12-31T04:08:54.181Z,7.48
2018-12-31T04:11:23.362Z,7.58
2018-12-31T04:13:53.581Z,7.53
2018-12-31T04:16:24.302Z,7.96
2018-12-31T04:18:54.719Z,7.69
2018-12-31T04:21:25.358Z,8.24
2018-12-31T04:23:54.523Z,8.33
2018-12-31T04:26:24.940Z,8.04
2018-12-31T04:28:54.074Z,8.77
2018-12-31T04:31:25.691Z,8.08
2018-12-31T04:33:54.807Z,8.01
2018-12-31T04:36:25.861Z,8.08
2018-12-31T04:38:54.933Z,8.24
2018-12-31T04:41:24.105Z,7.76
2018-12-31T04:43:55.055Z,7.30
2018-12-31T04:46:26.217Z,7.55
2018-12-31T04:48:55.163Z,7.60
2018-12-31T04:51:24.341Z,7.45
2018-12-31T04:53:53.435Z,7.76
2018-12-31T04:56:24.551Z,7.84
2018-12-31T04:58:54.859Z,8.00
2018-12-31T05:01:26.430Z,7.88
2018-12-31T05:03:55.666Z,7.53
2018-12-31T05:06:24.797Z,7.36
2018-12-31T05:08:59.181Z,7.47
2018-12-31T05:11:28.315Z,7.35
2018-12-31T05:13:57.755Z,7.34
2018-12-31T05:16:27.051Z,7.11
2018-12-31T05:19:00.782Z,7.28
2018-12-31T05:21:29.942Z,7.06
2018-12-31T05:23:59.076Z,7.39
2018-12-31T05:26:30.312Z,7.28
2018-12-31T05:29:01.051Z,7.54
2018-12-31T05:31:30.171Z,7.35
2018-12-31T05:34:01.365Z,7.88
2018-12-31T05:36:33.996Z,7.76
2018-12-31T05:39:03.780Z,8.16
2018-12-31T05:41:34.680Z,8.42
2018-12-31T05:44:06.656Z,7.83
2018-12-31T05:46:36.920Z,7.88
2018-12-31T05:49:07.571Z,7.79
2018-12-31T05:51:36.694Z,7.68
2018-12-31T05:54:05.854Z,7.83
2018-12-31T05:56:34.982Z,7.79
2018-12-31T05:59:08.451Z,7.70
2018-12-31T06:01:39.866Z,7.57
2018-12-31T06:04:13.111Z,7.49
2018-12-31T06:06:43.292Z,7.80
2018-12-31T06:09:13.809Z,8.23
2018-12-31T06:11:46.401Z,8.30
2018-12-31T06:14:19.161Z,8.30
2018-12-31T06:16:48.676Z,8.41
2018-12-31T06:19:25.321Z,8.65
2018-12-31T06:21:55.923Z,8.37
2018-12-31T06:24:27.160Z,8.61
2018-12-31T06:27:02.079Z,8.22
2018-12-31T06:29:35.918Z,7.84
2018-12-31T06:32:05.052Z,8.33
2018-12-31T06:34:34.685Z,8.49
2018-12-31T06:37:04.256Z,8.05
2018-12-31T06:39:39.009Z,8.55
2018-12-31T06:42:08.149Z,8.79
2018-12-31T06:44:46.203Z,8.69
2018-12-31T06:47:18.720Z,8.52
2018-12-31T06:49:47.986Z,8.46
2018-12-31T06:52:17.207Z,8.35
2018-12-31T06:54:48.234Z,8.20
2018-12-31T06:57:25.503Z,8.27
2018-12-31T06:59:52.440Z,8.56
2018-12-31T07:02:22.681Z,8.43
2018-12-31T07:04:56.091Z,8.67
2018-12-31T07:07:25.532Z,8.70
2018-12-31T07:09:54.724Z,8.62
2018-12-31T07:12:24.939Z,8.77
2018-12-31T07:14:55.645Z,8.52
2018-12-31T07:17:24.787Z,8.32
2018-12-31T07:19:53.983Z,8.70
2018-12-31T07:22:24.830Z,8.77
2018-12-31T07:24:53.954Z,8.69
2018-12-31T07:27:24.207Z,8.55
2018-12-31T07:29:56.373Z,8.39
2018-12-31T07:32:28.259Z,8.16
2018-12-31T07:34:58.989Z,8.68
2018-12-31T07:37:28.154Z,8.89
2018-12-31T07:39:57.286Z,8.96
2018-12-31T07:42:27.867Z,8.36
2018-12-31T07:44:59.779Z,8.39
2018-12-31T07:47:28.912Z,8.19
2018-12-31T07:50:01.349Z,8.31
2018-12-31T07:52:30.513Z,8.37
2018-12-31T07:54:59.679Z,8.77
2018-12-31T07:57:30.066Z,8.05
2018-12-31T08:00:03.426Z,8.18
2018-12-31T08:02:37.071Z,8.39
2018-12-31T08:05:10.371Z,8.50
2018-12-31T08:07:42.849Z,8.22
2018-12-31T08:10:11.974Z,7.79
2018-12-31T08:12:42.042Z,7.74
2018-12-31T08:15:11.153Z,7.90
2018-12-31T08:17:42.293Z,8.04
2018-12-31T08:20:11.222Z,7.37
2018-12-31T08:22:41.169Z,7.46
2018-12-31T08:25:14.779Z,7.55
2018-12-31T08:27:45.346Z,0.14
2018-12-31T08:30:14.509Z,8.02
2018-12-31T08:32:43.628Z,8.22
2018-12-31T08:35:14.598Z,7.96
2018-12-31T08:37:43.633Z,7.46
2018-12-31T08:40:13.903Z,7.86
2018-12-31T08:42:44.157Z,8.08
2018-12-31T08:45:13.748Z,8.00
2018-12-31T08:47:42.928Z,7.80
2018-12-31T08:50:12.336Z,7.42
2018-12-31T08:52:41.533Z,7.78
2018-12-31T08:55:16.272Z,8.21
2018-12-31T08:57:47.193Z,7.68
2018-12-31T09:00:16.357Z,8.14
2018-12-31T09:02:45.493Z,8.64
2018-12-31T09:05:14.647Z,7.84
2018-12-31T09:07:46.833Z,8.16
2018-12-31T09:10:18.915Z,8.14
2018-12-31T09:12:49.882Z,8.36
2018-12-31T09:15:22.403Z,8.60
2018-12-31T09:17:51.606Z,8.32
2018-12-31T09:20:20.707Z,8.02
2018-12-31T09:22:49.843Z,8.57
2018-12-31T09:25:19.078Z,8.28
2018-12-31T09:27:48.223Z,8.70
2018-12-31T09:30:18.862Z,8.61
2018-12-31T09:32:48.152Z,7.93
2018-12-31T09:35:18.876Z,7.90
2018-12-31T09:37:48.098Z,8.51
2018-12-31T09:40:17.235Z,8.40
2018-12-31T09:42:46.436Z,8.85
2018-12-31T09:45:15.551Z,8.17
2018-12-31T09:47:46.241Z,8.27
2018-12-31T09:50:15.895Z,7.99
2018-12-31T09:52:47.509Z,8.34
2018-12-31T09:55:17.837Z,8.35
2018-12-31T09:57:55.521Z,9.24
2018-12-31T10:00:24.732Z,9.97
2018-12-31T10:02:53.834Z,8.53
2018-12-31T10:05:22.963Z,8.27
2018-12-31T10:07:52.264Z,8.07
2018-12-31T10:10:23.576Z,8.24
2018-12-31T10:12:52.810Z,8.35
2018-12-31T10:15:22.858Z,8.16
2018-12-31T10:17:52.041Z,8.46
2018-12-31T10:20:21.156Z,8.93
2018-12-31T10:22:50.365Z,8.14
2018-12-31T10:25:19.466Z,8.78
2018-12-31T10:27:49.723Z,8.72
2018-12-31T10:30:19.253Z,9.39
2018-12-31T10:32:49.819Z,9.04
2018-12-31T10:35:18.944Z,8.83
2018-12-31T10:37:50.536Z,8.84
2018-12-31T10:40:19.655Z,8.84
2018-12-31T10:42:49.757Z,9.72
2018-12-31T10:45:19.680Z,9.51
2018-12-31T10:47:48.815Z,8.75
2018-12-31T10:50:18.022Z,9.18
2018-12-31T10:52:48.385Z,8.97
2018-12-31T10:55:19.258Z,8.73
2018-12-31T10:57:50.281Z,8.87
2018-12-31T11:00:22.275Z,9.04
2018-12-31T11:02:51.854Z,8.87
2018-12-31T11:05:34.661Z,8.74
2018-12-31T11:08:10.621Z,9.10
2018-12-31T11:10:40.046Z,9.11
2018-12-31T11:13:09.419Z,8.77
2018-12-31T11:15:38.496Z,9.03
2018-12-31T11:18:09.829Z,9.11
2018-12-31T11:20:39.473Z,8.80
2018-12-31T11:23:08.620Z,9.47
2018-12-31T11:25:37.898Z,0.73
2018-12-31T11:28:10.797Z,9.07
2018-12-31T11:30:39.884Z,9.10
2018-12-31T11:33:10.462Z,8.27
2018-12-31T11:35:42.052Z,8.90
2018-12-31T11:38:11.230Z,9.22
2018-12-31T11:40:40.300Z,9.08
2018-12-31T11:43:09.419Z,8.66
2018-12-31T11:45:38.488Z,8.04
2018-12-31T11:48:08.138Z,8.35
2018-12-31T11:50:37.277Z,8.72
2018-12-31T11:53:08.294Z,8.96
2018-12-31T11:55:37.415Z,0.29
2018-12-31T11:58:07.543Z,9.03
2018-12-31T12:00:36.696Z,8.23
2018-12-31T12:03:10.266Z,8.66
2018-12-31T12:05:39.392Z,8.69
2018-12-31T12:08:17.580Z,9.26
2018-12-31T12:10:49.834Z,9.21
2018-12-31T12:13:21.060Z,9.59
2018-12-31T12:15:49.902Z,9.35
2018-12-31T12:18:18.988Z,9.33
2018-12-31T12:20:49.781Z,9.35
2018-12-31T12:23:24.650Z,9.28
2018-12-31T12:25:55.809Z,9.62
2018-12-31T12:28:25.214Z,9.19
2018-12-31T12:30:54.525Z,9.23
2018-12-31T12:33:24.812Z,9.28
2018-12-31T12:35:56.445Z,9.63
2018-12-31T12:38:27.665Z,9.92
2018-12-31T12:41:02.061Z,10.15
2018-12-31T12:43:36.319Z,10.31
2018-12-31T12:46:13.953Z,9.97
2018-12-31T12:48:46.432Z,9.82
2018-12-31T12:51:15.794Z,9.66
2018-12-31T12:53:45.026Z,9.46
2018-12-31T12:56:14.150Z,8.89
2018-12-31T12:58:43.304Z,9.31
2018-12-31T13:01:17.975Z,10.00
2018-12-31T13:03:47.043Z,9.90
2018-12-31T13:06:16.210Z,9.81
2018-12-31T13:08:48.570Z,10.30
2018-12-31T13:11:18.765Z,10.42
2018-12-31T13:13:51.283Z,9.80
2018-12-31T13:16:20.416Z,9.80
2018-12-31T13:18:49.525Z,10.21
2018-12-31T13:21:19.615Z,9.89
2018-12-31T13:23:54.439Z,10.13
2018-12-31T13:26:23.578Z,9.98
2018-12-31T13:28:52.660Z,10.34
2018-12-31T13:31:22.665Z,10.08
2018-12-31T13:33:51.790Z,10.20
2018-12-31T13:36:21.926Z,11.38
2018-12-31T13:38:51.041Z,11.39
2018-12-31T13:41:21.479Z,11.36
2018-12-31T13:43:50.970Z,11.37
2018-12-31T13:46:20.120Z,11.18
2018-12-31T13:48:49.517Z,10.80
2018-12-31T13:51:23.165Z,10.79
2018-12-31T13:53:52.546Z,10.21
2018-12-31T13:56:23.137Z,10.07
2018-12-31T13:58:55.285Z,10.27
2018-12-31T14:01:24.469Z,10.03
2018-12-31T14:03:53.593Z,10.61
2018-12-31T14:06:22.695Z,11.56
2018-12-31T14:08:52.983Z,11.13
2018-12-31T14:11:23.467Z,11.79
2018-12-31T14:13:57.821Z,10.95
2018-12-31T14:16:32.582Z,10.90
2018-12-31T14:19:01.895Z,9.91
2018-12-31T14:21:31.006Z,10.36
2018-12-31T14:24:03.898Z,11.04
2018-12-31T14:26:33.912Z,10.99
2018-12-31T14:29:07.831Z,12.01
2018-12-31T14:31:36.996Z,10.64
2018-12-31T14:34:06.552Z,10.63
2018-12-31T14:36:35.659Z,10.36
2018-12-31T14:39:09.586Z,10.01
2018-12-31T14:41:39.681Z,10.04
2018-12-31T14:44:09.809Z,10.19
2018-12-31T14:46:39.981Z,9.86
2018-12-31T14:49:09.402Z,9.70
2018-12-31T14:51:41.206Z,9.57
2018-12-31T14:54:12.804Z,9.23
2018-12-31T14:56:41.920Z,9.17
2018-12-31T14:59:11.027Z,8.80
2018-12-31T15:01:40.168Z,9.03
2018-12-31T15:04:10.409Z,9.43
2018-12-31T15:06:40.599Z,9.23
2018-12-31T15:09:13.610Z,8.93
2018-12-31T15:11:44.616Z,8.92
2018-12-31T15:14:19.475Z,9.48
2018-12-31T15:16:49.492Z,9.82
2018-12-31T15:19:19.545Z,9.70
2018-12-31T15:21:48.777Z,9.96
2018-12-31T15:24:19.275Z,9.71
2018-12-31T15:26:54.137Z,9.89
2018-12-31T15:29:25.146Z,9.96
2018-12-31T15:31:56.735Z,10.25
2018-12-31T15:34:25.841Z,10.24
2018-12-31T15:36:55.249Z,11.19
2018-12-31T15:39:27.935Z,11.17
2018-12-31T15:41:57.051Z,10.37
2018-12-31T15:44:26.413Z,10.58
2018-12-31T15:46:55.519Z,10.10
2018-12-31T15:49:24.998Z,10.13
2018-12-31T15:51:54.178Z,10.02
2018-12-31T15:54:23.338Z,10.03
2018-12-31T15:56:53.055Z,9.94
2018-12-31T15:59:22.334Z,9.82
2018-12-31T16:01:51.423Z,10.08
2018-12-31T16:04:21.001Z,9.83
2018-12-31T16:06:53.027Z,8.00
2018-12-31T16:09:23.513Z,9.43
2018-12-31T16:11:52.661Z,9.52
2018-12-31T16:14:21.784Z,9.04
2018-12-31T16:16:50.883Z,8.68
2018-12-31T16:19:21.326Z,8.89
2018-12-31T16:21:50.402Z,9.14
2018-12-31T16:24:19.924Z,9.04
2018-12-31T16:26:55.000Z,9.58
2018-12-31T16:29:24.117Z,9.47
2018-12-31T16:31:53.240Z,9.91
2018-12-31T16:34:22.734Z,9.30
2018-12-31T16:36:53.671Z,8.84
2018-12-31T16:39:24.000Z,8.65
2018-12-31T16:41:54.886Z,8.35
2018-12-31T16:44:24.245Z,8.77
2018-12-31T16:46:56.440Z,8.96
2018-12-31T16:49:30.411Z,8.83
2018-12-31T16:52:05.359Z,9.11
2018-12-31T16:54:43.673Z,9.40
2018-12-31T16:57:12.826Z,9.97
2018-12-31T16:59:41.924Z,10.26
2018-12-31T17:02:12.347Z,10.67
2018-12-31T17:04:44.498Z,10.91
2018-12-31T17:07:18.699Z,11.23
2018-12-31T17:09:47.876Z,11.27
2018-12-31T17:12:17.122Z,11.28
2018-12-31T17:14:46.214Z,11.25
2018-12-31T17:17:16.933Z,11.32
2018-12-31T17:19:48.315Z,11.47
2018-12-31T17:22:17.645Z,11.30
2018-12-31T17:24:46.758Z,11.52
2018-12-31T17:27:21.546Z,11.59
2018-12-31T17:29:50.639Z,11.72
2018-12-31T17:32:20.052Z,11.46
2018-12-31T17:34:50.090Z,11.00
2018-12-31T17:37:26.731Z,11.01
2018-12-31T17:39:55.851Z,11.12
2018-12-31T17:42:24.990Z,11.12
2018-12-31T17:44:54.152Z,11.23
2018-12-31T17:47:24.300Z,11.16
2018-12-31T17:49:54.501Z,11.23
2018-12-31T17:52:23.605Z,11.21
2018-12-31T17:54:55.309Z,11.51
2018-12-31T17:57:30.458Z,11.37
2018-12-31T17:59:59.589Z,11.48
2018-12-31T18:02:29.407Z,11.12
2018-12-31T18:04:58.499Z,10.92
2018-12-31T18:07:27.601Z,10.88
2018-12-31T18:09:56.769Z,10.43
2018-12-31T18:12:27.100Z,10.13
2018-12-31T18:14:57.631Z,10.18
2018-12-31T18:17:26.791Z,9.91
2018-12-31T18:19:55.876Z,9.62
2018-12-31T18:22:25.385Z,10.73
2018-12-31T18:24:59.403Z,10.79
2018-12-31T18:27:28.490Z,11.06
2018-12-31T18:30:00.270Z,11.12
2018-12-31T18:32:29.376Z,10.74
2018-12-31T18:35:02.263Z,10.86
2018-12-31T18:37:31.507Z,11.26
2018-12-31T18:40:02.282Z,10.68
2018-12-31T18:42:31.863Z,10.27
2018-12-31T18:45:03.885Z,10.68
2018-12-31T18:47:35.813Z,10.18
2018-12-31T18:50:05.730Z,10.69
2018-12-31T18:52:36.524Z,10.78
2018-12-31T18:55:10.365Z,10.96
2018-12-31T18:57:39.729Z,10.80
2018-12-31T19:00:11.822Z,10.87
2018-12-31T19:02:44.841Z,11.20
2018-12-31T19:05:13.868Z,11.33
2018-12-31T19:07:43.012Z,11.59
2018-12-31T19:10:12.074Z,11.42
2018-12-31T19:12:41.162Z,10.93
2018-12-31T19:15:10.237Z,11.01
2018-12-31T19:17:43.528Z,11.27
2018-12-31T19:20:10.324Z,11.57
2018-12-31T19:22:39.760Z,11.38
2018-12-31T19:25:09.124Z,11.17
2018-12-31T19:27:38.377Z,11.37
2018-12-31T19:30:12.473Z,11.14
2018-12-31T19:32:41.612Z,10.76
2018-12-31T19:35:13.526Z,10.79
2018-12-31T19:37:45.455Z,11.05
2018-12-31T19:40:17.249Z,10.51
2018-12-31T19:42:48.181Z,10.36
2018-12-31T19:45:18.637Z,10.14
2018-12-31T19:47:50.710Z,9.99
2018-12-31T19:50:19.939Z,10.20
2018-12-31T19:52:52.064Z,10.08
2018-12-31T19:55:21.180Z,10.89
2018-12-31T19:57:50.671Z,10.84
2018-12-31T20:00:21.648Z,11.38
2018-12-31T20:02:50.778Z,10.59
2018-12-31T20:05:23.084Z,11.20
2018-12-31T20:07:58.887Z,11.58
2018-12-31T20:10:30.701Z,11.68
2018-12-31T20:12:59.788Z,11.25
2018-12-31T20:15:30.102Z,11.38
2018-12-31T20:18:01.194Z,11.22
2018-12-31T20:20:31.648Z,11.23
2018-12-31T20:23:03.819Z,10.93
2018-12-31T20:25:33.224Z,11.04
2018-12-31T20:28:03.431Z,10.96
2018-12-31T20:30:34.356Z,11.45
2018-12-31T20:33:03.480Z,11.35
2018-12-31T20:35:32.559Z,10.68
2018-12-31T20:38:04.226Z,11.24
2018-12-31T20:40:33.495Z,10.35
2018-12-31T20:43:03.252Z,10.14
2018-12-31T20:45:38.408Z,10.80
2018-12-31T20:48:08.858Z,11.20
2018-12-31T20:50:39.427Z,11.19
2018-12-31T20:53:08.535Z,10.81
2018-12-31T20:55:37.647Z,10.68
2018-12-31T20:58:07.083Z,10.59
2018-12-31T21:00:36.193Z,10.78
2018-12-31T21:03:07.735Z,10.71
2018-12-31T21:05:36.849Z,10.55
2018-12-31T21:08:07.450Z,10.31
2018-12-31T21:10:37.034Z,10.21
2018-12-31T21:13:06.126Z,10.49
2018-12-31T21:15:39.331Z,11.15
2018-12-31T21:18:10.537Z,11.19
2018-12-31T21:20:46.973Z,10.72
2018-12-31T21:23:19.250Z,10.63
2018-12-31T21:25:48.398Z,10.81
2018-12-31T21:28:19.456Z,10.98
2018-12-31T21:30:48.654Z,11.14
2018-12-31T21:33:18.733Z,11.21
2018-12-31T21:35:50.849Z,10.68
2018-12-31T21:38:20.151Z,10.70
2018-12-31T21:40:51.640Z,10.13
2018-12-31T21:43:21.123Z,9.78
2018-12-31T21:45:53.494Z,9.49
2018-12-31T21:48:22.619Z,9.58
2018-12-31T21:50:51.803Z,9.58
2018-12-31T21:53:21.016Z,9.60
2018-12-31T21:55:53.064Z,9.94
2018-12-31T21:58:22.166Z,10.25
2018-12-31T22:00:53.031Z,10.26
2018-12-31T22:03:22.653Z,9.76
2018-12-31T22:05:51.785Z,9.43
2018-12-31T22:08:27.555Z,9.69
2018-12-31T22:10:58.609Z,9.38
2018-12-31T22:13:27.708Z,9.54
2018-12-31T22:15:56.896Z,9.94
2018-12-31T22:18:27.091Z,9.98
2018-12-31T22:20:58.106Z,10.25
2018-12-31T22:23:27.636Z,9.99
2018-12-31T22:25:58.809Z,9.68
2018-12-31T22:28:28.867Z,9.78
2018-12-31T22:30:59.355Z,10.17
2018-12-31T22:33:31.610Z,10.44
2018-12-31T22:36:00.736Z,9.65
2018-12-31T22:38:36.016Z,10.04
2018-12-31T22:41:05.236Z,9.96
2018-12-31T22:43:35.443Z,9.89
2018-12-31T22:46:04.547Z,10.50
2018-12-31T22:48:36.475Z,10.72
2018-12-31T22:51:05.536Z,10.94
2018-12-31T22:53:36.438Z,11.09
2018-12-31T22:56:05.883Z,10.27
2018-12-31T22:58:34.972Z,10.43
2018-12-31T23:01:04.743Z,8.44
2018-12-31T23:03:34.395Z,10.32
2018-12-31T23:06:03.807Z,10.64
2018-12-31T23:08:34.138Z,10.83
2018-12-31T23:11:07.418Z,10.91
2018-12-31T23:13:42.902Z,10.89
2018-12-31T23:16:17.275Z,10.50
2018-12-31T23:18:47.918Z,10.43
2018-12-31T23:21:17.123Z,10.45
2018-12-31T23:23:46.240Z,10.14
2018-12-31T23:26:16.148Z,10.03
2018-12-31T23:28:52.309Z,10.21
2018-12-31T23:31:16.411Z,10.48
2018-12-31T23:33:47.350Z,10.80
2018-12-31T23:36:16.501Z,10.98
2018-12-31T23:38:45.799Z,10.75
2018-12-31T23:41:16.115Z,10.68
2018-12-31T23:43:45.378Z,11.01
2018-12-31T23:46:21.617Z,8.97
2018-12-31T23:48:50.769Z,11.00
2018-12-31T23:51:27.791Z,10.85
2018-12-31T23:53:56.912Z,10.51
2018-12-31T23:56:26.018Z,10.78
2018-12-31T23:58:55.384Z,10.94
